Time;durP1;ratioP1;P1;durP2;ratioP2;P2;SDS_P1;SDS_P2;PMS_P1;PMS_P2;Temp;Humidity;BMP_temperature;BMP_pressure;BME280_temperature;BME280_humidity;BME280_pressure;Samples;Min_cycle;Max_cycle;Signal;HPM_P1;HPM_P2
2023/10/29 00:04:32;;;;;;;3.27;3.00;;;13.70;99.90;;;;;;10518888;28;20193;-76
2023/10/29 00:09:54;;;;;;;3.10;2.90;;;13.60;99.90;;;;;;10517202;28;20601;-76
2023/10/29 00:15:17;;;;;;;3.57;2.90;;;13.50;99.90;;;;;;10513350;28;20206;-76
2023/10/29 00:20:40;;;;;;;4.73;3.57;;;13.50;99.90;;;;;;10521193;28;20299;-75
2023/10/29 00:26:04;;;;;;;5.43;3.80;;;13.50;99.90;;;;;;10501313;28;20204;-76
2023/10/29 00:31:26;;;;;;;3.73;3.43;;;13.40;99.90;;;;;;10533443;28;20220;-75
2023/10/29 00:36:49;;;;;;;3.17;2.43;;;13.40;99.90;;;;;;10536575;28;20207;-76
2023/10/29 00:42:12;;;;;;;3.40;3.20;;;13.40;99.90;;;;;;10493152;28;20220;-76
2023/10/29 00:47:34;;;;;;;4.13;3.43;;;13.40;99.90;;;;;;10520205;28;20220;-75
2023/10/29 00:52:58;;;;;;;5.17;3.37;;;13.30;99.90;;;;;;10498753;28;20238;-75
2023/10/29 00:58:21;;;;;;;3.43;3.20;;;13.30;99.90;;;;;;10513785;28;20276;-75
2023/10/29 01:03:43;;;;;;;5.33;3.73;;;13.30;99.90;;;;;;10503553;28;20705;-76
2023/10/29 01:09:07;;;;;;;3.97;3.63;;;13.30;99.90;;;;;;10522215;28;20212;-76
2023/10/29 01:14:30;;;;;;;3.93;3.70;;;13.40;99.90;;;;;;10508254;28;20566;-75
2023/10/29 01:19:53;;;;;;;4.03;3.60;;;13.40;99.90;;;;;;10516591;28;20212;-75
2023/10/29 01:25:17;;;;;;;3.80;3.50;;;13.40;99.90;;;;;;10499513;28;20691;-75
2023/10/29 01:30:39;;;;;;;3.10;2.90;;;13.50;99.90;;;;;;10511780;28;20225;-77
2023/10/29 01:36:01;;;;;;;3.23;2.97;;;13.50;99.90;;;;;;10517702;28;20212;-75
2023/10/29 01:41:25;;;;;;;3.03;2.60;;;13.50;99.90;;;;;;10505282;28;20532;-75
2023/10/29 01:46:47;;;;;;;2.80;2.60;;;13.60;99.90;;;;;;10522516;28;20693;-77
2023/10/29 01:52:09;;;;;;;2.67;2.23;;;13.60;99.90;;;;;;10487073;28;20581;-75
2023/10/29 01:57:34;;;;;;;2.27;2.13;;;13.60;99.90;;;;;;10526449;28;20205;-74
2023/10/29 02:02:56;;;;;;;3.63;3.23;;;13.60;99.90;;;;;;10477020;28;20224;-75
2023/10/29 02:08:19;;;;;;;3.50;2.50;;;13.60;99.90;;;;;;10531627;28;20215;-76
2023/10/29 02:13:43;;;;;;;2.10;2.00;;;13.60;99.90;;;;;;10491166;28;20221;-75
2023/10/29 02:19:05;;;;;;;2.40;2.20;;;13.70;99.90;;;;;;10527818;28;20573;-75
2023/10/29 02:24:29;;;;;;;3.50;2.90;;;13.70;99.90;;;;;;10496546;28;20546;-75
2023/10/29 02:29:51;;;;;;;2.20;2.10;;;13.80;99.90;;;;;;10524376;28;20237;-75
2023/10/29 02:35:14;;;;;;;2.13;1.93;;;13.80;99.90;;;;;;10500219;28;20207;-75
2023/10/29 02:40:38;;;;;;;2.83;2.20;;;13.80;99.90;;;;;;10519211;28;20309;-75
2023/10/29 02:46:01;;;;;;;2.37;2.00;;;13.90;99.90;;;;;;10504113;28;20580;-75
2023/10/29 02:51:23;;;;;;;2.00;1.90;;;13.90;99.90;;;;;;10513736;28;20610;-76
2023/10/29 02:56:46;;;;;;;1.90;1.80;;;13.90;99.90;;;;;;10511078;28;20205;-76
2023/10/29 03:02:09;;;;;;;2.23;2.00;;;14.00;99.90;;;;;;10507804;28;20213;-75
2023/10/29 03:07:31;;;;;;;2.07;1.97;;;14.00;99.90;;;;;;10515858;28;20677;-75
2023/10/29 03:12:55;;;;;;;2.30;2.10;;;14.00;99.90;;;;;;10488067;28;20738;-75
2023/10/29 03:18:17;;;;;;;4.10;2.50;;;14.00;99.90;;;;;;10519313;28;20201;-75
2023/10/29 03:23:39;;;;;;;2.37;2.00;;;13.90;99.90;;;;;;10496061;28;20219;-75
2023/10/29 03:29:02;;;;;;;1.93;1.83;;;13.90;99.90;;;;;;10525071;28;20204;-74
2023/10/29 03:34:25;;;;;;;2.30;2.10;;;13.90;99.90;;;;;;10492392;28;20192;-75
2023/10/29 03:39:47;;;;;;;2.13;2.03;;;13.80;99.90;;;;;;10527438;28;20700;-75
2023/10/29 03:45:11;;;;;;;2.40;2.30;;;13.80;99.90;;;;;;10489386;28;20201;-75
2023/10/29 03:50:33;;;;;;;2.67;2.53;;;13.80;99.90;;;;;;10531111;28;20685;-75
2023/10/29 03:56:00;;;;;;;3.33;3.03;;;13.80;99.90;;;;;;10523948;28;20696;-74
2023/10/29 04:01:24;;;;;;;3.13;2.90;;;13.70;99.90;;;;;;10497668;28;20207;-75
2023/10/29 04:06:46;;;;;;;1.97;1.87;;;13.70;99.90;;;;;;10519576;28;20205;-75
2023/10/29 04:12:08;;;;;;;2.77;2.57;;;13.70;99.90;;;;;;10500999;28;20216;-76
2023/10/29 04:17:32;;;;;;;2.10;1.97;;;13.60;99.90;;;;;;10514830;28;20671;-74
2023/10/29 04:22:54;;;;;;;2.10;2.00;;;13.60;99.90;;;;;;10506614;28;20219;-75
2023/10/29 04:28:16;;;;;;;2.33;2.23;;;13.60;99.90;;;;;;10509291;28;20200;-76
2023/10/29 04:33:40;;;;;;;1.83;1.73;;;13.60;99.90;;;;;;10512392;28;20216;-75
2023/10/29 04:39:02;;;;;;;3.47;2.20;;;13.60;99.90;;;;;;10510519;28;20201;-75
2023/10/29 04:44:26;;;;;;;1.80;1.70;;;13.60;99.90;;;;;;10599401;23;20233;-79
2023/10/29 04:49:49;;;;;;;1.97;1.87;;;13.60;99.90;;;;;;10558839;28;20623;-80
2023/10/29 04:55:12;;;;;;;2.07;1.97;;;13.60;99.90;;;;;;10538555;28;20200;-80
2023/10/29 05:00:34;;;;;;;4.70;3.70;;;13.60;99.90;;;;;;10514704;28;20214;-80
2023/10/29 05:05:57;;;;;;;8.70;6.33;;;13.60;99.90;;;;;;10540813;28;20222;-79
2023/10/29 05:11:20;;;;;;;6.43;4.67;;;13.60;99.90;;;;;;10489710;28;20231;-80
2023/10/29 05:16:42;;;;;;;3.73;3.30;;;13.60;99.90;;;;;;10492006;28;20200;-79
2023/10/29 05:22:06;;;;;;;3.53;3.20;;;13.60;99.90;;;;;;10509124;28;20224;-79
2023/10/29 05:27:28;;;;;;;2.53;2.37;;;13.60;99.90;;;;;;10515715;28;20611;-80
2023/10/29 05:32:50;;;;;;;3.00;2.80;;;13.50;99.90;;;;;;10534017;28;20741;-79
2023/10/29 05:38:14;;;;;;;2.90;2.70;;;13.50;99.90;;;;;;10513471;28;20197;-80
2023/10/29 05:43:37;;;;;;;2.53;2.43;;;13.60;99.90;;;;;;10529073;28;20702;-79
2023/10/29 05:48:59;;;;;;;2.17;2.07;;;13.60;99.90;;;;;;10515582;28;20580;-80
2023/10/29 05:54:22;;;;;;;2.80;2.23;;;13.60;99.90;;;;;;10531226;28;20221;-80
2023/10/29 05:59:45;;;;;;;2.03;1.93;;;13.70;99.90;;;;;;10519902;28;20207;-80
2023/10/29 06:05:07;;;;;;;2.20;2.10;;;13.70;99.90;;;;;;10519286;28;20275;-80
2023/10/29 06:10:31;;;;;;;2.53;2.30;;;13.80;99.90;;;;;;10524485;28;20224;-78
2023/10/29 06:15:53;;;;;;;2.13;2.03;;;13.80;99.90;;;;;;10498050;28;20208;-80
2023/10/29 06:21:19;;;;;;;2.40;2.20;;;13.80;99.90;;;;;;10528630;28;20217;-79
2023/10/29 06:26:42;;;;;;;2.17;1.97;;;13.80;99.90;;;;;;10508364;28;20651;-80
2023/10/29 06:32:05;;;;;;;3.87;3.57;;;13.80;99.90;;;;;;10537726;28;20227;-80
2023/10/29 06:37:27;;;;;;;2.50;2.40;;;13.90;99.90;;;;;;10505731;28;20208;-80
2023/10/29 06:42:50;;;;;;;2.33;2.23;;;13.90;99.90;;;;;;10541636;28;21159;-80
2023/10/29 06:48:12;;;;;;;3.53;2.67;;;13.90;99.90;;;;;;10503511;28;20234;-80
2023/10/29 06:53:35;;;;;;;2.50;2.40;;;13.90;99.90;;;;;;10501150;28;20228;-79
2023/10/29 06:58:58;;;;;;;2.60;2.50;;;13.90;99.90;;;;;;10536302;28;20204;-80
2023/10/29 07:04:20;;;;;;;2.63;2.53;;;13.90;99.90;;;;;;10507087;28;20212;-80
2023/10/29 07:09:42;;;;;;;4.27;3.30;;;13.90;99.90;;;;;;10517743;28;20228;-80
2023/10/29 07:15:08;;;;;;;2.60;2.40;;;13.90;99.90;;;;;;10514307;28;20200;-80
2023/10/29 07:20:31;;;;;;;2.37;2.27;;;14.00;99.90;;;;;;10528740;28;20221;-80
2023/10/29 07:25:53;;;;;;;2.40;2.20;;;14.10;99.90;;;;;;10518193;28;20661;-77
2023/10/29 07:31:16;;;;;;;2.27;2.17;;;14.10;99.90;;;;;;10521860;28;20224;-80
2023/10/29 07:36:38;;;;;;;2.10;2.00;;;14.20;99.90;;;;;;10522828;28;20225;-80
2023/10/29 07:42:02;;;;;;;2.70;2.50;;;14.30;99.90;;;;;;10514773;28;20224;-77
2023/10/29 07:47:25;;;;;;;3.50;3.23;;;14.30;99.90;;;;;;10526837;28;20223;-78
2023/10/29 07:52:48;;;;;;;3.40;3.13;;;14.40;99.90;;;;;;10510012;28;20228;-78
2023/10/29 07:58:10;;;;;;;31.33;18.73;;;14.50;99.90;;;;;;10532236;28;20192;-78
2023/10/29 08:03:34;;;;;;;28.50;16.13;;;14.50;99.90;;;;;;10507635;28;20213;-79
2023/10/29 08:08:56;;;;;;;7.73;5.10;;;14.60;99.90;;;;;;10534731;28;20192;-80
2023/10/29 08:14:18;;;;;;;3.50;3.20;;;14.60;99.90;;;;;;10507532;28;20221;-80
2023/10/29 08:19:42;;;;;;;3.20;2.90;;;14.70;99.90;;;;;;10486765;28;20209;-80
2023/10/29 08:25:05;;;;;;;2.93;2.73;;;14.80;99.90;;;;;;10543959;28;20215;-80
2023/10/29 08:30:27;;;;;;;2.57;2.37;;;15.00;99.90;;;;;;10497191;28;20714;-80
2023/10/29 08:35:50;;;;;;;2.80;2.70;;;15.10;99.90;;;;;;10521137;28;20215;-77
2023/10/29 08:41:16;;;;;;;2.20;2.10;;;15.20;99.90;;;;;;10517956;28;20244;-78
2023/10/29 08:46:38;;;;;;;5.57;2.20;;;15.30;99.90;;;;;;10519204;28;20196;-80
2023/10/29 08:52:02;;;;;;;2.40;2.20;;;15.50;99.90;;;;;;10528681;28;20220;-79
2023/10/29 08:57:24;;;;;;;2.20;2.10;;;15.50;99.90;;;;;;10520398;28;20207;-79
2023/10/29 09:02:46;;;;;;;2.70;2.40;;;15.50;99.90;;;;;;10521207;28;20219;-78
2023/10/29 09:08:10;;;;;;;2.03;1.93;;;15.50;99.90;;;;;;10520429;28;20196;-79
2023/10/29 09:13:34;;;;;;;1.93;1.83;;;15.60;99.90;;;;;;10514634;28;20235;-80
2023/10/29 09:18:56;;;;;;;1.87;1.70;;;15.70;99.90;;;;;;10517244;28;20597;-80
2023/10/29 09:24:20;;;;;;;2.40;2.23;;;15.80;99.90;;;;;;10521693;28;20229;-80
2023/10/29 09:29:42;;;;;;;2.60;2.40;;;15.90;99.90;;;;;;10538750;28;20204;-80
2023/10/29 09:35:05;;;;;;;2.73;2.60;;;16.00;99.90;;;;;;10532218;28;20220;-80
2023/10/29 09:40:28;;;;;;;3.40;2.53;;;16.10;99.90;;;;;;10531988;28;20727;-80
2023/10/29 09:45:53;;;;;;;2.90;2.70;;;16.00;99.90;;;;;;10537906;28;20200;-80
2023/10/29 09:51:16;;;;;;;1.87;1.77;;;16.00;99.90;;;;;;10521502;28;20605;-78
2023/10/29 09:56:39;;;;;;;2.40;2.20;;;16.00;99.90;;;;;;10530215;28;20412;-80
2023/10/29 10:02:02;;;;;;;1.87;1.77;;;16.10;99.90;;;;;;10531709;28;20216;-79
2023/10/29 10:07:26;;;;;;;2.13;2.03;;;16.10;99.90;;;;;;10517307;28;20200;-80
2023/10/29 10:12:51;;;;;;;3.50;2.63;;;16.20;99.90;;;;;;10529399;28;20250;-80
2023/10/29 10:18:14;;;;;;;3.20;2.30;;;16.40;99.90;;;;;;10536884;28;20298;-79
2023/10/29 10:23:47;;;;;;;2.30;1.87;;;16.50;99.90;;;;;;10522402;28;20728;-80
2023/10/29 10:29:12;;;;;;;2.63;2.43;;;16.60;99.90;;;;;;10533779;28;20206;-79
2023/10/29 10:34:37;;;;;;;2.60;2.10;;;16.60;99.90;;;;;;10531107;28;20224;-80
2023/10/29 10:39:59;;;;;;;3.20;2.37;;;16.60;99.90;;;;;;10539333;28;20212;-79
2023/10/29 10:45:26;;;;;;;2.57;2.17;;;16.60;99.90;;;;;;10540259;28;20578;-80
2023/10/29 10:50:49;;;;;;;2.67;2.30;;;16.50;99.90;;;;;;10542616;28;20224;-80
2023/10/29 10:56:12;;;;;;;2.40;2.17;;;16.60;99.90;;;;;;10527704;28;20209;-80
2023/10/29 11:01:37;;;;;;;2.60;1.93;;;16.70;99.90;;;;;;10529657;28;20212;-80
2023/10/29 11:06:59;;;;;;;2.70;2.50;;;16.70;99.90;;;;;;10530289;28;20681;-80
2023/10/29 11:12:21;;;;;;;2.60;2.40;;;16.70;99.90;;;;;;10525600;28;20224;-80
2023/10/29 11:17:57;;;;;;;2.17;2.00;;;16.70;99.90;;;;;;10524112;28;20579;-80
2023/10/29 11:23:24;;;;;;;2.47;2.27;;;16.70;99.90;;;;;;10526613;28;20212;-79
2023/10/29 11:28:46;;;;;;;2.07;1.90;;;16.70;99.90;;;;;;10535577;28;20224;-79
2023/10/29 11:34:41;;;;;;;3.10;2.30;;;16.70;99.90;;;;;;10529399;28;20220;-80
2023/10/29 11:40:32;;;;;;;3.63;2.23;;;16.80;99.90;;;;;;10527780;28;20204;-80
2023/10/29 11:45:59;;;;;;;2.70;2.50;;;16.90;99.90;;;;;;10536723;28;20524;-80
2023/10/29 11:51:22;;;;;;;2.30;2.10;;;16.90;99.90;;;;;;10545563;28;20224;-79
2023/10/29 11:56:47;;;;;;;1.57;1.40;;;17.00;99.90;;;;;;10543730;28;20193;-80
2023/10/29 12:02:09;;;;;;;2.40;2.20;;;17.00;99.90;;;;;;10537324;28;20611;-80
2023/10/29 12:07:32;;;;;;;2.03;1.83;;;17.00;99.90;;;;;;10540056;28;20204;-79
2023/10/29 12:12:56;;;;;;;2.23;2.13;;;17.10;99.90;;;;;;10528586;28;20228;-79
2023/10/29 12:18:20;;;;;;;1.80;1.70;;;17.10;99.90;;;;;;10523912;28;20208;-80
2023/10/29 12:23:42;;;;;;;3.30;2.20;;;17.10;99.20;;;;;;10526019;28;20273;-80
2023/10/29 12:29:05;;;;;;;1.90;1.80;;;17.10;98.00;;;;;;10529239;28;20211;-80
2023/10/29 12:34:28;;;;;;;1.50;1.40;;;17.10;99.00;;;;;;10538543;28;20572;-80
2023/10/29 12:39:52;;;;;;;2.23;1.80;;;17.00;99.90;;;;;;10546184;28;20218;-80
2023/10/29 12:45:25;;;;;;;2.37;2.27;;;17.20;98.70;;;;;;10528002;28;20200;-80
2023/10/29 12:50:48;;;;;;;1.57;1.47;;;17.40;97.20;;;;;;10529896;28;20216;-79
2023/10/29 12:56:14;;;;;;;1.40;1.30;;;17.60;95.50;;;;;;10536803;28;20215;-79
2023/10/29 13:01:38;;;;;;;1.40;1.30;;;17.90;94.80;;;;;;10544283;28;20220;-76
2023/10/29 13:07:07;;;;;;;1.60;1.50;;;18.00;94.50;;;;;;10539232;28;20303;-79
2023/10/29 13:12:29;;;;;;;1.30;1.23;;;18.10;95.40;;;;;;10539015;28;20225;-79
2023/10/29 13:17:53;;;;;;;1.63;1.53;;;18.20;94.60;;;;;;10536604;28;20212;-79
2023/10/29 13:23:15;;;;;;;3.40;1.70;;;18.20;95.40;;;;;;10527251;28;20220;-79
2023/10/29 13:28:37;;;;;;;1.30;1.30;;;18.30;94.40;;;;;;10531678;28;20204;-79
2023/10/29 13:34:01;;;;;;;1.30;1.20;;;18.40;95.00;;;;;;10540235;28;20223;-79
2023/10/29 13:39:23;;;;;;;1.90;1.80;;;18.40;96.00;;;;;;10531416;28;20670;-79
2023/10/29 13:44:45;;;;;;;1.60;1.50;;;18.30;96.90;;;;;;10535571;28;20231;-78
2023/10/29 13:50:10;;;;;;;1.70;1.60;;;18.10;97.30;;;;;;10531315;28;20193;-79
2023/10/29 13:55:33;;;;;;;1.70;1.60;;;17.90;98.30;;;;;;10534105;28;20255;-78
2023/10/29 14:00:55;;;;;;;2.10;2.00;;;17.80;98.00;;;;;;10531494;28;20612;-78
2023/10/29 14:06:20;;;;;;;1.50;1.40;;;17.80;99.40;;;;;;10532986;28;20205;-77
2023/10/29 14:11:42;;;;;;;2.70;1.40;;;17.80;99.70;;;;;;10528758;28;20646;-78
2023/10/29 14:17:06;;;;;;;2.83;1.90;;;17.70;99.70;;;;;;10532866;28;20273;-78
2023/10/29 14:22:30;;;;;;;1.50;1.50;;;17.70;99.20;;;;;;10534151;28;20236;-79
2023/10/29 14:27:52;;;;;;;1.60;1.37;;;17.70;98.40;;;;;;10529748;28;20200;-79
2023/10/29 14:33:14;;;;;;;2.13;1.60;;;17.70;96.20;;;;;;10520552;28;20247;-78
2023/10/29 14:38:38;;;;;;;1.57;1.47;;;17.70;96.50;;;;;;10531297;28;20626;-79
2023/10/29 14:44:00;;;;;;;1.90;1.80;;;17.70;95.70;;;;;;10530846;28;20540;-79
2023/10/29 14:49:22;;;;;;;2.30;2.20;;;17.70;95.80;;;;;;10533339;28;20197;-78
2023/10/29 14:54:46;;;;;;;1.80;1.67;;;17.60;96.10;;;;;;10532879;28;20232;-79
2023/10/29 15:00:10;;;;;;;1.50;1.50;;;17.50;96.30;;;;;;10531024;28;20207;-79
2023/10/29 15:05:32;;;;;;;1.63;1.53;;;17.40;97.90;;;;;;10530670;28;20196;-79
2023/10/29 15:10:57;;;;;;;1.50;1.40;;;17.40;98.90;;;;;;10532125;28;20706;-79
2023/10/29 15:16:19;;;;;;;3.40;2.03;;;17.30;98.70;;;;;;10526739;28;20240;-79
2023/10/29 15:21:41;;;;;;;3.20;2.90;;;17.20;99.20;;;;;;10523860;28;20227;-79
2023/10/29 15:27:05;;;;;;;2.40;2.30;;;17.20;99.90;;;;;;10507267;28;20609;-79
2023/10/29 15:32:27;;;;;;;2.30;2.00;;;17.10;99.70;;;;;;10527332;28;20213;-79
2023/10/29 15:37:50;;;;;;;5.13;2.53;;;17.00;99.90;;;;;;10495532;28;20208;-78
2023/10/29 15:43:14;;;;;;;1.70;1.60;;;16.90;99.90;;;;;;10537323;28;20224;-79
2023/10/29 15:48:37;;;;;;;2.43;2.23;;;16.80;99.90;;;;;;10527059;28;20204;-78
2023/10/29 15:53:59;;;;;;;2.17;1.70;;;16.70;99.90;;;;;;10536149;28;20277;-78
2023/10/29 15:59:23;;;;;;;2.33;2.10;;;16.50;99.90;;;;;;10529486;28;20659;-78
2023/10/29 16:04:45;;;;;;;2.53;2.40;;;16.40;99.90;;;;;;10536280;28;20361;-78
2023/10/29 16:10:08;;;;;;;2.53;2.33;;;16.40;99.90;;;;;;10529132;28;20207;-78
2023/10/29 16:15:32;;;;;;;2.70;2.10;;;16.20;99.90;;;;;;10536912;28;20208;-77
2023/10/29 16:20:54;;;;;;;2.20;2.00;;;16.20;99.90;;;;;;10534040;28;20239;-78
2023/10/29 16:26:17;;;;;;;2.83;2.63;;;16.10;99.90;;;;;;10530186;28;20224;-78
2023/10/29 16:31:40;;;;;;;2.50;2.30;;;16.10;99.90;;;;;;10535874;28;20224;-78
2023/10/29 16:37:03;;;;;;;2.40;2.20;;;16.10;99.90;;;;;;10534334;28;20210;-78
2023/10/29 16:42:25;;;;;;;2.77;2.57;;;16.10;99.90;;;;;;10571882;22;20588;-76
2023/10/29 16:47:49;;;;;;;2.50;2.13;;;16.00;99.90;;;;;;10523995;28;20254;-76
2023/10/29 16:53:11;;;;;;;2.70;2.50;;;16.00;99.90;;;;;;10537861;28;20697;-78
2023/10/29 16:58:33;;;;;;;10.00;6.63;;;16.00;99.90;;;;;;10576782;28;20320;-78
2023/10/29 17:03:57;;;;;;;12.70;7.80;;;16.00;99.90;;;;;;10573980;28;20249;-76
2023/10/29 17:09:19;;;;;;;25.03;13.10;;;15.90;99.90;;;;;;10573233;28;20271;-78
2023/10/29 17:14:42;;;;;;;3.30;3.10;;;15.90;99.90;;;;;;10563981;28;20224;-78
2023/10/29 17:20:07;;;;;;;2.83;2.63;;;16.00;99.90;;;;;;10578725;28;20199;-77
2023/10/29 17:25:29;;;;;;;3.30;3.00;;;16.00;99.90;;;;;;10575852;28;20215;-76
2023/10/29 17:30:51;;;;;;;2.93;2.73;;;16.10;99.90;;;;;;10578554;28;20188;-78
2023/10/29 17:36:16;;;;;;;2.73;2.63;;;16.10;99.90;;;;;;10579223;28;20267;-78
2023/10/29 17:41:38;;;;;;;2.40;2.30;;;16.00;99.90;;;;;;10572857;28;20223;-78
2023/10/29 17:47:00;;;;;;;2.40;2.30;;;16.00;99.90;;;;;;10559542;28;20602;-77
2023/10/29 17:52:23;;;;;;;2.60;2.50;;;15.90;99.90;;;;;;10577096;28;20231;-76
2023/10/29 17:57:46;;;;;;;2.57;2.47;;;15.80;99.90;;;;;;10578481;28;20206;-76
2023/10/29 18:03:08;;;;;;;2.73;2.63;;;15.70;99.90;;;;;;10576250;28;20596;-78
2023/10/29 18:08:31;;;;;;;2.70;2.60;;;15.60;99.90;;;;;;10578297;28;20195;-78
2023/10/29 18:13:54;;;;;;;2.70;2.60;;;15.60;99.90;;;;;;10576148;28;20227;-78
2023/10/29 18:19:16;;;;;;;2.70;2.60;;;15.60;99.90;;;;;;10550813;28;20200;-78
2023/10/29 18:24:40;;;;;;;2.53;2.13;;;15.60;99.90;;;;;;10572310;28;20212;-78
2023/10/29 18:30:02;;;;;;;2.50;2.40;;;15.60;99.90;;;;;;10577748;28;20607;-76
2023/10/29 18:35:24;;;;;;;2.30;2.20;;;15.50;99.90;;;;;;10568822;28;20731;-76
2023/10/29 18:40:48;;;;;;;2.70;2.60;;;15.50;99.90;;;;;;10556531;28;20188;-79
2023/10/29 18:46:11;;;;;;;2.43;2.33;;;15.50;99.90;;;;;;10542845;28;20196;-76
2023/10/29 18:51:33;;;;;;;2.27;2.17;;;15.50;99.90;;;;;;10547237;28;20230;-78
2023/10/29 18:56:57;;;;;;;2.93;2.83;;;15.40;99.90;;;;;;10555648;28;20227;-78
2023/10/29 19:02:19;;;;;;;2.20;2.10;;;15.40;99.90;;;;;;10537121;28;20230;-76
2023/10/29 19:07:42;;;;;;;2.27;2.17;;;15.30;99.90;;;;;;10572938;28;20679;-76
2023/10/29 19:13:06;;;;;;;2.20;2.10;;;15.30;99.90;;;;;;10553495;28;20228;-76
2023/10/29 19:18:28;;;;;;;2.50;2.30;;;15.30;99.90;;;;;;10542199;28;20200;-78
2023/10/29 19:23:50;;;;;;;3.57;2.20;;;15.30;99.90;;;;;;10560781;28;20294;-78
2023/10/29 19:29:14;;;;;;;2.47;2.37;;;15.20;99.90;;;;;;10563232;28;20406;-78
2023/10/29 19:34:36;;;;;;;3.53;3.33;;;15.20;99.90;;;;;;10551111;28;20227;-78
2023/10/29 19:40:03;;;;;;;18.07;12.60;;;15.10;99.90;;;;;;10569299;28;20224;-78
2023/10/29 19:45:27;;;;;;;4.40;4.00;;;14.90;99.90;;;;;;10551067;28;20603;-78
2023/10/29 19:50:57;;;;;;;8.30;7.40;;;14.80;99.90;;;;;;10570272;28;20204;-78
2023/10/29 19:56:20;;;;;;;10.97;9.87;;;14.70;99.90;;;;;;10569027;28;20222;-77
2023/10/29 20:01:43;;;;;;;5.90;5.40;;;14.60;99.90;;;;;;10568539;28;20633;-77
2023/10/29 20:07:05;;;;;;;7.37;6.80;;;14.50;99.90;;;;;;10560315;28;20577;-77
2023/10/29 20:12:28;;;;;;;6.93;6.33;;;14.50;99.90;;;;;;10574069;28;20696;-77
2023/10/29 20:17:54;;;;;;;8.07;7.50;;;14.40;99.90;;;;;;10574114;28;20192;-78
2023/10/29 20:23:17;;;;;;;4.40;4.20;;;14.40;99.90;;;;;;10571341;28;20219;-78
2023/10/29 20:28:39;;;;;;;4.47;4.17;;;14.40;99.90;;;;;;10559312;28;20195;-77
2023/10/29 20:34:04;;;;;;;5.87;5.57;;;14.40;99.90;;;;;;10558999;28;20228;-77
2023/10/29 20:39:26;;;;;;;7.13;4.47;;;14.40;99.90;;;;;;10547387;28;20204;-77
2023/10/29 20:44:48;;;;;;;5.13;4.83;;;14.30;99.90;;;;;;10568123;28;20223;-77
2023/10/29 20:50:12;;;;;;;6.83;6.43;;;14.40;99.90;;;;;;10577651;28;20665;-77
2023/10/29 20:55:34;;;;;;;4.10;3.90;;;14.40;99.90;;;;;;10569546;28;20234;-77
2023/10/29 21:00:56;;;;;;;4.00;3.87;;;14.40;99.90;;;;;;10560118;28;20201;-77
2023/10/29 21:06:20;;;;;;;4.40;4.20;;;14.50;99.90;;;;;;10557297;28;20211;-77
2023/10/29 21:11:42;;;;;;;4.13;3.73;;;14.50;99.90;;;;;;10570216;28;20212;-77
2023/10/29 21:17:04;;;;;;;5.43;5.00;;;14.50;99.90;;;;;;10576735;28;20239;-77
2023/10/29 21:22:28;;;;;;;4.10;3.90;;;14.50;99.90;;;;;;10571761;28;20215;-77
2023/10/29 21:27:50;;;;;;;4.67;4.37;;;14.50;99.90;;;;;;10577486;28;20702;-77
2023/10/29 21:33:12;;;;;;;5.07;4.77;;;14.50;99.90;;;;;;10546728;28;20606;-78
2023/10/29 21:38:36;;;;;;;4.37;4.07;;;14.50;99.90;;;;;;10579355;28;20222;-77
2023/10/29 21:43:59;;;;;;;4.17;3.97;;;14.50;99.90;;;;;;10537152;28;20228;-77
2023/10/29 21:49:21;;;;;;;4.30;4.10;;;14.60;99.90;;;;;;10577984;28;20668;-77
2023/10/29 21:54:48;;;;;;;4.20;4.00;;;14.60;99.90;;;;;;10552673;28;20263;-78
2023/10/29 22:00:11;;;;;;;4.40;4.20;;;14.60;99.90;;;;;;10553199;28;20950;-77
2023/10/29 22:05:34;;;;;;;3.93;3.70;;;14.60;99.90;;;;;;10576321;28;20220;-77
2023/10/29 22:10:58;;;;;;;4.10;4.00;;;14.60;99.90;;;;;;10553854;28;20208;-77
2023/10/29 22:16:21;;;;;;;3.90;3.70;;;14.60;99.90;;;;;;10562455;28;20227;-77
2023/10/29 22:21:43;;;;;;;3.80;3.60;;;14.60;99.90;;;;;;10577083;28;20231;-77
2023/10/29 22:27:06;;;;;;;4.03;3.83;;;14.60;99.90;;;;;;10547125;28;20204;-77
2023/10/29 22:32:29;;;;;;;3.90;3.70;;;14.60;99.90;;;;;;10546044;28;20222;-78
2023/10/29 22:37:51;;;;;;;3.70;3.50;;;14.60;99.90;;;;;;10572541;28;20224;-76
2023/10/29 22:43:14;;;;;;;3.97;3.77;;;14.60;99.90;;;;;;10558356;22;20228;-80
2023/10/29 22:48:37;;;;;;;3.63;3.43;;;14.60;99.90;;;;;;10527644;28;20208;-80
2023/10/29 22:53:59;;;;;;;9.83;5.40;;;14.60;99.90;;;;;;10519693;28;20228;-80
2023/10/29 22:59:22;;;;;;;24.53;15.13;;;14.50;99.90;;;;;;10474761;28;20199;-80
2023/10/29 23:04:45;;;;;;;3.67;3.40;;;14.50;99.90;;;;;;10449519;28;20221;-80
2023/10/29 23:10:09;;;;;;;7.73;6.73;;;14.50;99.90;;;;;;10462176;28;20626;-79
2023/10/29 23:15:34;;;;;;;7.33;5.90;;;14.50;99.90;;;;;;10478350;28;20228;-77
2023/10/29 23:20:56;;;;;;;4.93;4.63;;;14.50;99.90;;;;;;10469113;28;20674;-79
2023/10/29 23:26:18;;;;;;;3.60;3.40;;;14.50;99.90;;;;;;10471969;28;20681;-78
2023/10/29 23:31:42;;;;;;;4.07;3.87;;;14.50;99.90;;;;;;10483303;28;20208;-79
2023/10/29 23:37:04;;;;;;;4.47;4.17;;;14.40;99.90;;;;;;10475814;28;20235;-79
2023/10/29 23:42:26;;;;;;;5.50;5.10;;;14.30;99.90;;;;;;10496064;28;20188;-79
2023/10/29 23:47:50;;;;;;;4.93;4.43;;;14.20;99.90;;;;;;10496438;28;20201;-79
2023/10/29 23:53:12;;;;;;;4.17;3.97;;;14.20;99.90;;;;;;10468966;28;20222;-79
2023/10/29 23:58:34;;;;;;;4.70;4.40;;;14.20;99.90;;;;;;10463503;28;20189;-80
